Strona główna
METAR-TAF:

METAR-TAF

Lotnisko :

Saint-Yan, Francja

Szerokość geograficzna: 46-24-45N, Długość geograficzna: 004-00-48E, wysokość: 244 m

Aktualna obserwacja pogody

Raport powstał 24 minut temu, godzina 11:30 UTC
Wiatr 4 kt z kierunków zmiennych
Temperatura 15°C
Wilgotność 59%
Ciśnienie 1024 hPa
Widzialność 10 km lub więcej
Brak chmur poniżej 1500 m i brak chmur cumulonimbus

METAR: LFLN 241130Z AUTO VRB04KT CAVOK 15/07 Q1024 NOSIG

czas: 12:54 (11:54 UTC)

Prognoza

Raport powstał 54 minut temu, godzina 11:00 UTC
Prognoza ważna od 24 godzina 12 UTC do 24 godzina 21 UTC
Wiatr 5 kt od południowo-południowy zachód
Widzialność 10 km lub więcej
Brak chmur poniżej 1500 m i brak chmur cumulonimbus
Przejściowo
od 24 godzina 15 UTC do 24 godzina 21 UTC
Wiatr 10 kt od zachodnio-północny zachód

TAF: LFLN 241100Z 2412/2421 20005KT CAVOK TEMPO 2415/2421 30010KT

Obserwacja i prognoza pogody dla ponad 4000 lotnisk (raport METAR i TAF).

Dostępne stacje oznaczono żółtymi i czerwonymi punktami na mapie.

Najedź kursorem aby zobaczyć nazwę stacji.

Kliknij aby zobaczyć obserwacje i prognozy pogody.

Aby zmienić mapę: kliknij na zielony przycisk z czarnym krzyżykiem, aby powiększyć; na zielony przycisk z myślnikiem, aby pomniejszyć; na zielone strzałki, aby przejść do map sąsiednich.


METAR-TAF: